Search METAR Data

METAR Data for ENAT:

ENAT 131550Z 29008KT 9999 SCT048 BKN061 15/07 Q1014 RMK WIND 700FT 30006KT